sensor_id;sensor_type;location;lat;lon;timestamp;P1;durP1;ratioP1;P2;durP2;ratioP2
65971;SDS011;52726;48.852;9.152;2023-02-19T00:01:31;2.67;;;2.25;;
65971;SDS011;52726;48.852;9.152;2023-02-19T00:07:28;2.40;;;1.95;;
65971;SDS011;52726;48.852;9.152;2023-02-19T00:09:59;2.47;;;2.17;;
65971;SDS011;52726;48.852;9.152;2023-02-19T00:12:24;2.60;;;2.25;;
65971;SDS011;52726;48.852;9.152;2023-02-19T00:14:50;3.90;;;2.28;;
65971;SDS011;52726;48.852;9.152;2023-02-19T00:17:15;2.85;;;2.00;;
65971;SDS011;52726;48.852;9.152;2023-02-19T00:19:41;3.85;;;2.53;;
65971;SDS011;52726;48.852;9.152;2023-02-19T00:22:18;2.22;;;1.95;;
65971;SDS011;52726;48.852;9.152;2023-02-19T00:24:47;5.35;;;2.45;;
65971;SDS011;52726;48.852;9.152;2023-02-19T00:27:13;3.05;;;2.30;;
65971;SDS011;52726;48.852;9.152;2023-02-19T00:29:38;5.32;;;2.40;;
65971;SDS011;52726;48.852;9.152;2023-02-19T00:32:04;3.75;;;2.38;;
65971;SDS011;52726;48.852;9.152;2023-02-19T00:34:29;4.22;;;2.20;;
65971;SDS011;52726;48.852;9.152;2023-02-19T00:36:54;4.95;;;2.47;;
65971;SDS011;52726;48.852;9.152;2023-02-19T00:39:20;2.80;;;2.38;;
65971;SDS011;52726;48.852;9.152;2023-02-19T00:41:45;5.25;;;2.08;;
65971;SDS011;52726;48.852;9.152;2023-02-19T00:44:11;2.38;;;1.98;;
65971;SDS011;52726;48.852;9.152;2023-02-19T00:46:38;3.70;;;2.40;;
65971;SDS011;52726;48.852;9.152;2023-02-19T00:49:05;2.72;;;1.98;;
65971;SDS011;52726;48.852;9.152;2023-02-19T00:51:33;2.88;;;1.98;;
65971;SDS011;52726;48.852;9.152;2023-02-19T00:54:03;2.97;;;2.50;;
65971;SDS011;52726;48.852;9.152;2023-02-19T00:56:30;3.42;;;2.38;;
65971;SDS011;52726;48.852;9.152;2023-02-19T00:58:55;3.25;;;2.10;;
65971;SDS011;52726;48.852;9.152;2023-02-19T01:01:21;2.70;;;2.40;;
65971;SDS011;52726;48.852;9.152;2023-02-19T01:03:46;2.40;;;2.20;;
65971;SDS011;52726;48.852;9.152;2023-02-19T01:06:13;2.70;;;2.17;;
65971;SDS011;52726;48.852;9.152;2023-02-19T01:08:40;3.50;;;2.15;;
65971;SDS011;52726;48.852;9.152;2023-02-19T01:11:21;2.47;;;2.15;;
65971;SDS011;52726;48.852;9.152;2023-02-19T01:17:28;2.88;;;2.45;;
65971;SDS011;52726;48.852;9.152;2023-02-19T01:19:53;2.38;;;2.17;;
65971;SDS011;52726;48.852;9.152;2023-02-19T01:22:22;2.38;;;2.17;;
65971;SDS011;52726;48.852;9.152;2023-02-19T01:24:50;2.55;;;2.10;;
65971;SDS011;52726;48.852;9.152;2023-02-19T01:27:16;3.05;;;2.08;;
65971;SDS011;52726;48.852;9.152;2023-02-19T01:29:41;2.20;;;2.00;;
65971;SDS011;52726;48.852;9.152;2023-02-19T01:32:07;3.08;;;2.40;;
65971;SDS011;52726;48.852;9.152;2023-02-19T01:34:32;2.42;;;1.83;;
65971;SDS011;52726;48.852;9.152;2023-02-19T01:36:58;2.85;;;2.45;;
65971;SDS011;52726;48.852;9.152;2023-02-19T01:39:24;4.05;;;2.20;;
65971;SDS011;52726;48.852;9.152;2023-02-19T01:41:49;2.10;;;1.90;;
65971;SDS011;52726;48.852;9.152;2023-02-19T01:46:41;2.58;;;2.38;;
65971;SDS011;52726;48.852;9.152;2023-02-19T01:51:47;3.05;;;2.25;;
65971;SDS011;52726;48.852;9.152;2023-02-19T01:54:25;3.20;;;2.00;;
65971;SDS011;52726;48.852;9.152;2023-02-19T01:56:52;2.50;;;2.30;;
65971;SDS011;52726;48.852;9.152;2023-02-19T01:59:19;2.10;;;1.90;;
65971;SDS011;52726;48.852;9.152;2023-02-19T02:01:44;3.53;;;2.22;;
65971;SDS011;52726;48.852;9.152;2023-02-19T02:04:10;3.15;;;2.00;;
65971;SDS011;52726;48.852;9.152;2023-02-19T02:06:51;6.00;;;2.10;;
65971;SDS011;52726;48.852;9.152;2023-02-19T02:09:19;1.75;;;1.65;;
65971;SDS011;52726;48.852;9.152;2023-02-19T02:12:05;2.17;;;1.60;;
65971;SDS011;52726;48.852;9.152;2023-02-19T02:14:32;2.47;;;1.77;;
65971;SDS011;52726;48.852;9.152;2023-02-19T02:19:55;1.60;;;1.50;;
65971;SDS011;52726;48.852;9.152;2023-02-19T02:22:31;2.42;;;2.22;;
65971;SDS011;52726;48.852;9.152;2023-02-19T02:27:53;2.60;;;2.00;;
65971;SDS011;52726;48.852;9.152;2023-02-19T02:30:28;3.88;;;2.22;;
65971;SDS011;52726;48.852;9.152;2023-02-19T02:33:14;2.30;;;2.00;;
65971;SDS011;52726;48.852;9.152;2023-02-19T02:35:54;2.95;;;2.03;;
65971;SDS011;52726;48.852;9.152;2023-02-19T02:38:24;3.67;;;1.85;;
65971;SDS011;52726;48.852;9.152;2023-02-19T02:40:54;2.47;;;1.85;;
65971;SDS011;52726;48.852;9.152;2023-02-19T02:43:21;2.85;;;1.95;;
65971;SDS011;52726;48.852;9.152;2023-02-19T02:45:47;3.53;;;2.08;;
65971;SDS011;52726;48.852;9.152;2023-02-19T02:50:58;1.92;;;1.80;;
65971;SDS011;52726;48.852;9.152;2023-02-19T02:56:43;2.25;;;1.88;;
65971;SDS011;52726;48.852;9.152;2023-02-19T02:59:12;2.33;;;2.08;;
65971;SDS011;52726;48.852;9.152;2023-02-19T03:06:54;1.70;;;1.60;;
65971;SDS011;52726;48.852;9.152;2023-02-19T03:09:25;1.65;;;1.55;;
65971;SDS011;52726;48.852;9.152;2023-02-19T03:12:04;2.38;;;1.77;;
65971;SDS011;52726;48.852;9.152;2023-02-19T03:14:51;2.40;;;2.20;;
65971;SDS011;52726;48.852;9.152;2023-02-19T03:17:40;4.35;;;1.73;;
65971;SDS011;52726;48.852;9.152;2023-02-19T03:20:27;2.83;;;1.52;;
65971;SDS011;52726;48.852;9.152;2023-02-19T03:22:54;1.73;;;1.63;;
65971;SDS011;52726;48.852;9.152;2023-02-19T03:25:23;1.92;;;1.75;;
65971;SDS011;52726;48.852;9.152;2023-02-19T03:28:09;3.15;;;1.90;;
65971;SDS011;52726;48.852;9.152;2023-02-19T03:30:39;2.38;;;2.17;;
65971;SDS011;52726;48.852;9.152;2023-02-19T03:33:14;1.92;;;1.83;;
65971;SDS011;52726;48.852;9.152;2023-02-19T03:35:46;1.83;;;1.73;;
65971;SDS011;52726;48.852;9.152;2023-02-19T03:38:24;2.35;;;1.73;;
65971;SDS011;52726;48.852;9.152;2023-02-19T03:41:47;1.58;;;1.48;;
65971;SDS011;52726;48.852;9.152;2023-02-19T03:43:57;2.25;;;2.05;;
65971;SDS011;52726;48.852;9.152;2023-02-19T03:47:04;1.80;;;1.42;;
65971;SDS011;52726;48.852;9.152;2023-02-19T03:50:05;2.03;;;1.45;;
65971;SDS011;52726;48.852;9.152;2023-02-19T03:53:25;1.58;;;1.48;;
65971;SDS011;52726;48.852;9.152;2023-02-19T03:55:40;2.22;;;1.48;;
65971;SDS011;52726;48.852;9.152;2023-02-19T03:58:21;1.40;;;1.30;;
65971;SDS011;52726;48.852;9.152;2023-02-19T04:01:13;5.88;;;1.67;;
65971;SDS011;52726;48.852;9.152;2023-02-19T04:06:49;2.80;;;1.80;;
65971;SDS011;52726;48.852;9.152;2023-02-19T04:09:18;3.78;;;1.85;;
65971;SDS011;52726;48.852;9.152;2023-02-19T04:11:45;2.97;;;1.65;;
65971;SDS011;52726;48.852;9.152;2023-02-19T04:14:22;1.90;;;1.52;;
65971;SDS011;52726;48.852;9.152;2023-02-19T04:16:53;3.42;;;1.25;;
65971;SDS011;52726;48.852;9.152;2023-02-19T04:19:30;1.30;;;1.23;;
65971;SDS011;52726;48.852;9.152;2023-02-19T04:21:58;1.10;;;1.10;;
65971;SDS011;52726;48.852;9.152;2023-02-19T04:24:32;2.90;;;1.40;;
65971;SDS011;52726;48.852;9.152;2023-02-19T04:27:01;0.60;;;0.60;;
65971;SDS011;52726;48.852;9.152;2023-02-19T04:29:27;1.20;;;0.60;;
65971;SDS011;52726;48.852;9.152;2023-02-19T04:31:52;0.30;;;0.30;;
65971;SDS011;52726;48.852;9.152;2023-02-19T04:34:18;0.35;;;0.35;;
65971;SDS011;52726;48.852;9.152;2023-02-19T04:36:43;0.30;;;0.30;;
65971;SDS011;52726;48.852;9.152;2023-02-19T04:39:08;0.30;;;0.30;;
65971;SDS011;52726;48.852;9.152;2023-02-19T04:41:34;0.20;;;0.20;;
65971;SDS011;52726;48.852;9.152;2023-02-19T04:43:59;0.22;;;0.22;;
65971;SDS011;52726;48.852;9.152;2023-02-19T04:46:24;0.30;;;0.30;;
65971;SDS011;52726;48.852;9.152;2023-02-19T04:48:50;0.20;;;0.20;;
65971;SDS011;52726;48.852;9.152;2023-02-19T04:51:15;0.20;;;0.20;;
65971;SDS011;52726;48.852;9.152;2023-02-19T04:53:41;0.63;;;0.45;;
65971;SDS011;52726;48.852;9.152;2023-02-19T04:56:10;0.30;;;0.30;;
65971;SDS011;52726;48.852;9.152;2023-02-19T04:58:37;0.40;;;0.40;;
65971;SDS011;52726;48.852;9.152;2023-02-19T05:01:03;0.38;;;0.38;;
65971;SDS011;52726;48.852;9.152;2023-02-19T05:03:30;0.38;;;0.38;;
65971;SDS011;52726;48.852;9.152;2023-02-19T05:05:56;0.40;;;0.40;;
65971;SDS011;52726;48.852;9.152;2023-02-19T05:08:21;0.55;;;0.55;;
65971;SDS011;52726;48.852;9.152;2023-02-19T05:10:46;0.30;;;0.30;;
65971;SDS011;52726;48.852;9.152;2023-02-19T05:13:12;0.30;;;0.30;;
65971;SDS011;52726;48.852;9.152;2023-02-19T05:15:37;0.17;;;0.17;;
65971;SDS011;52726;48.852;9.152;2023-02-19T05:18:02;0.30;;;0.30;;
65971;SDS011;52726;48.852;9.152;2023-02-19T05:20:28;0.40;;;0.40;;
65971;SDS011;52726;48.852;9.152;2023-02-19T05:22:53;0.60;;;0.60;;
65971;SDS011;52726;48.852;9.152;2023-02-19T05:25:19;0.30;;;0.30;;
65971;SDS011;52726;48.852;9.152;2023-02-19T05:27:44;0.50;;;0.50;;
65971;SDS011;52726;48.852;9.152;2023-02-19T05:30:10;0.20;;;0.20;;
65971;SDS011;52726;48.852;9.152;2023-02-19T05:32:36;0.40;;;0.40;;
65971;SDS011;52726;48.852;9.152;2023-02-19T05:35:01;0.60;;;0.60;;
65971;SDS011;52726;48.852;9.152;2023-02-19T05:37:27;0.30;;;0.30;;
65971;SDS011;52726;48.852;9.152;2023-02-19T05:39:52;0.40;;;0.40;;
65971;SDS011;52726;48.852;9.152;2023-02-19T05:42:17;0.35;;;0.35;;
65971;SDS011;52726;48.852;9.152;2023-02-19T05:44:43;0.50;;;0.50;;
65971;SDS011;52726;48.852;9.152;2023-02-19T05:47:08;0.30;;;0.30;;
65971;SDS011;52726;48.852;9.152;2023-02-19T05:49:33;0.30;;;0.30;;
65971;SDS011;52726;48.852;9.152;2023-02-19T05:51:59;0.22;;;0.22;;
65971;SDS011;52726;48.852;9.152;2023-02-19T05:54:26;0.50;;;0.50;;
65971;SDS011;52726;48.852;9.152;2023-02-19T05:56:53;0.30;;;0.30;;
65971;SDS011;52726;48.852;9.152;2023-02-19T05:59:20;0.30;;;0.30;;
65971;SDS011;52726;48.852;9.152;2023-02-19T06:01:48;0.30;;;0.30;;
65971;SDS011;52726;48.852;9.152;2023-02-19T06:04:14;0.35;;;0.35;;
65971;SDS011;52726;48.852;9.152;2023-02-19T06:06:40;0.30;;;0.30;;
65971;SDS011;52726;48.852;9.152;2023-02-19T06:09:06;0.25;;;0.25;;
65971;SDS011;52726;48.852;9.152;2023-02-19T06:11:32;0.40;;;0.40;;
65971;SDS011;52726;48.852;9.152;2023-02-19T06:13:58;0.50;;;0.50;;
65971;SDS011;52726;48.852;9.152;2023-02-19T06:16:23;0.30;;;0.30;;
65971;SDS011;52726;48.852;9.152;2023-02-19T06:18:49;1.05;;;0.95;;
65971;SDS011;52726;48.852;9.152;2023-02-19T06:21:15;0.45;;;0.45;;
65971;SDS011;52726;48.852;9.152;2023-02-19T06:23:41;1.85;;;0.70;;
65971;SDS011;52726;48.852;9.152;2023-02-19T06:26:20;0.82;;;0.63;;
65971;SDS011;52726;48.852;9.152;2023-02-19T06:28:49;0.30;;;0.30;;
65971;SDS011;52726;48.852;9.152;2023-02-19T06:31:15;0.50;;;0.50;;
65971;SDS011;52726;48.852;9.152;2023-02-19T06:33:41;0.40;;;0.40;;
65971;SDS011;52726;48.852;9.152;2023-02-19T06:36:09;0.70;;;0.70;;
65971;SDS011;52726;48.852;9.152;2023-02-19T06:38:39;0.50;;;0.50;;
65971;SDS011;52726;48.852;9.152;2023-02-19T06:41:05;0.50;;;0.50;;
65971;SDS011;52726;48.852;9.152;2023-02-19T06:43:31;0.40;;;0.40;;
65971;SDS011;52726;48.852;9.152;2023-02-19T06:45:58;0.50;;;0.50;;
65971;SDS011;52726;48.852;9.152;2023-02-19T06:48:24;0.63;;;0.50;;
65971;SDS011;52726;48.852;9.152;2023-02-19T06:50:51;0.50;;;0.50;;
65971;SDS011;52726;48.852;9.152;2023-02-19T06:53:16;1.30;;;0.77;;
65971;SDS011;52726;48.852;9.152;2023-02-19T06:55:41;0.80;;;0.80;;
65971;SDS011;52726;48.852;9.152;2023-02-19T06:58:07;0.65;;;0.65;;
65971;SDS011;52726;48.852;9.152;2023-02-19T07:00:32;0.98;;;0.90;;
65971;SDS011;52726;48.852;9.152;2023-02-19T07:02:58;0.95;;;0.90;;
65971;SDS011;52726;48.852;9.152;2023-02-19T07:05:24;0.82;;;0.82;;
65971;SDS011;52726;48.852;9.152;2023-02-19T07:07:49;1.00;;;1.00;;
65971;SDS011;52726;48.852;9.152;2023-02-19T07:10:15;1.23;;;1.13;;
65971;SDS011;52726;48.852;9.152;2023-02-19T07:12:40;1.00;;;0.98;;
65971;SDS011;52726;48.852;9.152;2023-02-19T07:15:06;0.70;;;0.70;;
65971;SDS011;52726;48.852;9.152;2023-02-19T07:17:33;0.90;;;0.80;;
65971;SDS011;52726;48.852;9.152;2023-02-19T07:19:59;1.13;;;1.02;;
65971;SDS011;52726;48.852;9.152;2023-02-19T07:22:24;0.93;;;0.93;;
65971;SDS011;52726;48.852;9.152;2023-02-19T07:24:49;0.50;;;0.50;;
65971;SDS011;52726;48.852;9.152;2023-02-19T07:27:15;0.80;;;0.80;;
65971;SDS011;52726;48.852;9.152;2023-02-19T07:29:40;0.65;;;0.63;;
65971;SDS011;52726;48.852;9.152;2023-02-19T07:32:05;1.13;;;1.05;;
65971;SDS011;52726;48.852;9.152;2023-02-19T07:34:31;0.73;;;0.73;;
65971;SDS011;52726;48.852;9.152;2023-02-19T07:36:56;2.65;;;1.02;;
65971;SDS011;52726;48.852;9.152;2023-02-19T07:39:21;0.77;;;0.65;;
65971;SDS011;52726;48.852;9.152;2023-02-19T07:41:46;1.17;;;1.08;;
65971;SDS011;52726;48.852;9.152;2023-02-19T07:44:12;1.30;;;0.98;;
65971;SDS011;52726;48.852;9.152;2023-02-19T07:46:40;0.90;;;0.90;;
65971;SDS011;52726;48.852;9.152;2023-02-19T07:49:05;1.02;;;1.02;;
65971;SDS011;52726;48.852;9.152;2023-02-19T07:51:31;1.75;;;1.10;;
65971;SDS011;52726;48.852;9.152;2023-02-19T07:53:56;1.30;;;1.20;;
65971;SDS011;52726;48.852;9.152;2023-02-19T07:56:21;1.30;;;1.20;;
65971;SDS011;52726;48.852;9.152;2023-02-19T07:58:47;1.10;;;0.93;;
65971;SDS011;52726;48.852;9.152;2023-02-19T08:01:13;1.27;;;1.20;;
65971;SDS011;52726;48.852;9.152;2023-02-19T08:03:40;1.45;;;0.77;;
65971;SDS011;52726;48.852;9.152;2023-02-19T08:06:07;1.10;;;1.00;;
65971;SDS011;52726;48.852;9.152;2023-02-19T08:08:32;1.25;;;0.70;;
65971;SDS011;52726;48.852;9.152;2023-02-19T08:10:58;1.17;;;1.10;;
65971;SDS011;52726;48.852;9.152;2023-02-19T08:13:43;1.30;;;1.02;;
65971;SDS011;52726;48.852;9.152;2023-02-19T08:16:10;0.63;;;0.63;;
65971;SDS011;52726;48.852;9.152;2023-02-19T08:18:39;0.90;;;0.90;;
65971;SDS011;52726;48.852;9.152;2023-02-19T08:21:05;1.30;;;1.20;;
65971;SDS011;52726;48.852;9.152;2023-02-19T08:23:30;0.63;;;0.63;;
65971;SDS011;52726;48.852;9.152;2023-02-19T08:25:56;0.80;;;0.80;;
65971;SDS011;52726;48.852;9.152;2023-02-19T08:28:23;0.95;;;0.75;;
65971;SDS011;52726;48.852;9.152;2023-02-19T08:30:48;0.70;;;0.70;;
65971;SDS011;52726;48.852;9.152;2023-02-19T08:33:15;0.52;;;0.52;;
65971;SDS011;52726;48.852;9.152;2023-02-19T08:35:43;0.70;;;0.70;;
65971;SDS011;52726;48.852;9.152;2023-02-19T08:38:09;0.90;;;0.90;;
65971;SDS011;52726;48.852;9.152;2023-02-19T08:40:36;0.77;;;0.60;;
65971;SDS011;52726;48.852;9.152;2023-02-19T08:43:03;1.13;;;0.80;;
65971;SDS011;52726;48.852;9.152;2023-02-19T08:45:29;1.23;;;0.95;;
65971;SDS011;52726;48.852;9.152;2023-02-19T08:47:55;0.77;;;0.77;;
65971;SDS011;52726;48.852;9.152;2023-02-19T08:50:20;0.35;;;0.35;;
65971;SDS011;52726;48.852;9.152;2023-02-19T08:52:46;1.17;;;0.90;;
65971;SDS011;52726;48.852;9.152;2023-02-19T08:55:11;0.75;;;0.75;;
65971;SDS011;52726;48.852;9.152;2023-02-19T08:57:37;0.85;;;0.85;;
65971;SDS011;52726;48.852;9.152;2023-02-19T09:00:03;1.75;;;1.15;;
65971;SDS011;52726;48.852;9.152;2023-02-19T09:02:30;1.00;;;0.98;;
65971;SDS011;52726;48.852;9.152;2023-02-19T09:04:55;1.42;;;0.80;;
65971;SDS011;52726;48.852;9.152;2023-02-19T09:07:21;0.95;;;0.93;;
65971;SDS011;52726;48.852;9.152;2023-02-19T09:09:47;0.45;;;0.45;;
65971;SDS011;52726;48.852;9.152;2023-02-19T09:12:12;1.02;;;0.93;;
65971;SDS011;52726;48.852;9.152;2023-02-19T09:14:38;1.23;;;0.93;;
65971;SDS011;52726;48.852;9.152;2023-02-19T09:17:04;1.30;;;1.20;;
65971;SDS011;52726;48.852;9.152;2023-02-19T09:19:31;1.55;;;0.85;;
65971;SDS011;52726;48.852;9.152;2023-02-19T09:21:56;1.10;;;1.00;;
65971;SDS011;52726;48.852;9.152;2023-02-19T09:24:22;4.43;;;1.15;;
65971;SDS011;52726;48.852;9.152;2023-02-19T09:26:48;1.83;;;1.02;;
65971;SDS011;52726;48.852;9.152;2023-02-19T09:29:18;2.72;;;0.88;;
65971;SDS011;52726;48.852;9.152;2023-02-19T09:31:44;3.15;;;0.98;;
65971;SDS011;52726;48.852;9.152;2023-02-19T09:34:10;2.35;;;0.85;;
65971;SDS011;52726;48.852;9.152;2023-02-19T09:36:36;1.92;;;1.42;;
65971;SDS011;52726;48.852;9.152;2023-02-19T09:39:02;3.75;;;1.23;;
65971;SDS011;52726;48.852;9.152;2023-02-19T09:43:59;1.30;;;1.05;;
65971;SDS011;52726;48.852;9.152;2023-02-19T09:46:33;0.70;;;0.65;;
65971;SDS011;52726;48.852;9.152;2023-02-19T09:49:13;2.63;;;0.77;;
65971;SDS011;52726;48.852;9.152;2023-02-19T09:51:41;3.17;;;1.10;;
65971;SDS011;52726;48.852;9.152;2023-02-19T09:54:25;1.20;;;1.10;;
65971;SDS011;52726;48.852;9.152;2023-02-19T09:56:53;2.80;;;1.00;;
65971;SDS011;52726;48.852;9.152;2023-02-19T09:59:22;1.40;;;1.00;;
65971;SDS011;52726;48.852;9.152;2023-02-19T10:01:53;0.55;;;0.55;;
65971;SDS011;52726;48.852;9.152;2023-02-19T10:04:25;1.90;;;0.75;;
65971;SDS011;52726;48.852;9.152;2023-02-19T10:06:51;1.15;;;0.60;;
65971;SDS011;52726;48.852;9.152;2023-02-19T10:09:20;2.05;;;0.82;;
65971;SDS011;52726;48.852;9.152;2023-02-19T10:11:48;1.90;;;0.47;;
65971;SDS011;52726;48.852;9.152;2023-02-19T10:14:21;3.35;;;1.00;;
65971;SDS011;52726;48.852;9.152;2023-02-19T10:19:23;0.55;;;0.55;;
65971;SDS011;52726;48.852;9.152;2023-02-19T10:21:48;0.93;;;0.63;;
65971;SDS011;52726;48.852;9.152;2023-02-19T10:24:24;1.95;;;0.68;;
65971;SDS011;52726;48.852;9.152;2023-02-19T10:26:52;0.63;;;0.55;;
65971;SDS011;52726;48.852;9.152;2023-02-19T10:29:18;4.32;;;0.95;;
65971;SDS011;52726;48.852;9.152;2023-02-19T10:31:45;0.63;;;0.63;;
65971;SDS011;52726;48.852;9.152;2023-02-19T10:34:21;0.60;;;0.60;;
65971;SDS011;52726;48.852;9.152;2023-02-19T10:36:49;2.42;;;0.80;;
65971;SDS011;52726;48.852;9.152;2023-02-19T10:41:50;1.05;;;0.50;;
65971;SDS011;52726;48.852;9.152;2023-02-19T10:44:20;1.02;;;0.80;;
65971;SDS011;52726;48.852;9.152;2023-02-19T10:46:53;1.58;;;0.65;;
65971;SDS011;52726;48.852;9.152;2023-02-19T10:52:00;1.17;;;0.80;;
65971;SDS011;52726;48.852;9.152;2023-02-19T10:54:41;1.20;;;0.80;;
65971;SDS011;52726;48.852;9.152;2023-02-19T10:57:15;3.22;;;0.85;;
65971;SDS011;52726;48.852;9.152;2023-02-19T11:02:26;1.05;;;0.50;;
65971;SDS011;52726;48.852;9.152;2023-02-19T11:07:36;1.00;;;0.90;;
65971;SDS011;52726;48.852;9.152;2023-02-19T11:10:17;1.08;;;0.75;;
65971;SDS011;52726;48.852;9.152;2023-02-19T11:12:53;3.58;;;0.80;;
65971;SDS011;52726;48.852;9.152;2023-02-19T11:15:39;1.30;;;0.80;;
65971;SDS011;52726;48.852;9.152;2023-02-19T11:20:56;3.35;;;1.13;;
65971;SDS011;52726;48.852;9.152;2023-02-19T11:23:33;1.13;;;0.80;;
65971;SDS011;52726;48.852;9.152;2023-02-19T11:26:00;0.93;;;0.55;;
65971;SDS011;52726;48.852;9.152;2023-02-19T11:28:31;2.53;;;0.75;;
65971;SDS011;52726;48.852;9.152;2023-02-19T11:36:25;2.42;;;0.98;;
65971;SDS011;52726;48.852;9.152;2023-02-19T11:39:06;0.40;;;0.40;;
65971;SDS011;52726;48.852;9.152;2023-02-19T11:41:52;1.65;;;0.90;;
65971;SDS011;52726;48.852;9.152;2023-02-19T11:44:36;0.73;;;0.73;;
65971;SDS011;52726;48.852;9.152;2023-02-19T11:50:25;0.90;;;0.70;;
65971;SDS011;52726;48.852;9.152;2023-02-19T11:53:09;5.22;;;1.13;;
65971;SDS011;52726;48.852;9.152;2023-02-19T12:01:20;1.65;;;0.93;;
65971;SDS011;52726;48.852;9.152;2023-02-19T12:09:56;1.85;;;0.75;;
65971;SDS011;52726;48.852;9.152;2023-02-19T12:26:21;0.60;;;0.60;;
65971;SDS011;52726;48.852;9.152;2023-02-19T12:39:49;1.85;;;0.80;;
65971;SDS011;52726;48.852;9.152;2023-02-19T12:42:39;1.27;;;0.88;;
65971;SDS011;52726;48.852;9.152;2023-02-19T12:45:37;0.57;;;0.57;;
65971;SDS011;52726;48.852;9.152;2023-02-19T12:48:11;1.85;;;0.77;;
65971;SDS011;52726;48.852;9.152;2023-02-19T12:50:43;1.02;;;0.70;;
65971;SDS011;52726;48.852;9.152;2023-02-19T12:53:16;2.53;;;0.70;;
65971;SDS011;52726;48.852;9.152;2023-02-19T12:55:53;1.13;;;1.02;;
65971;SDS011;52726;48.852;9.152;2023-02-19T12:58:27;2.40;;;0.70;;
65971;SDS011;52726;48.852;9.152;2023-02-19T13:00:57;1.52;;;0.90;;
65971;SDS011;52726;48.852;9.152;2023-02-19T13:03:28;1.73;;;0.70;;
65971;SDS011;52726;48.852;9.152;2023-02-19T13:12:10;1.90;;;0.80;;
65971;SDS011;52726;48.852;9.152;2023-02-19T13:17:26;1.10;;;0.85;;
65971;SDS011;52726;48.852;9.152;2023-02-19T13:23:32;1.90;;;1.08;;
65971;SDS011;52726;48.852;9.152;2023-02-19T13:35:51;1.25;;;1.13;;
65971;SDS011;52726;48.852;9.152;2023-02-19T13:38:44;2.58;;;0.80;;
65971;SDS011;52726;48.852;9.152;2023-02-19T13:41:16;1.95;;;0.88;;
65971;SDS011;52726;48.852;9.152;2023-02-19T13:43:43;2.20;;;1.13;;
65971;SDS011;52726;48.852;9.152;2023-02-19T13:46:12;2.05;;;1.00;;
65971;SDS011;52726;48.852;9.152;2023-02-19T13:48:41;0.85;;;0.85;;
65971;SDS011;52726;48.852;9.152;2023-02-19T14:04:39;5.45;;;0.93;;
65971;SDS011;52726;48.852;9.152;2023-02-19T14:14:42;1.00;;;0.95;;
65971;SDS011;52726;48.852;9.152;2023-02-19T14:25:17;1.48;;;0.82;;
65971;SDS011;52726;48.852;9.152;2023-02-19T14:27:55;4.47;;;1.23;;
65971;SDS011;52726;48.852;9.152;2023-02-19T14:30:38;1.00;;;0.90;;
65971;SDS011;52726;48.852;9.152;2023-02-19T14:33:10;2.28;;;0.93;;
65971;SDS011;52726;48.852;9.152;2023-02-19T14:35:43;6.22;;;1.00;;
65971;SDS011;52726;48.852;9.152;2023-02-19T14:38:27;1.58;;;0.75;;
65971;SDS011;52726;48.852;9.152;2023-02-19T14:40:59;1.60;;;1.00;;
65971;SDS011;52726;48.852;9.152;2023-02-19T14:43:25;2.85;;;0.82;;
65971;SDS011;52726;48.852;9.152;2023-02-19T14:46:08;1.65;;;0.90;;
65971;SDS011;52726;48.852;9.152;2023-02-19T14:49:19;1.35;;;0.88;;
65971;SDS011;52726;48.852;9.152;2023-02-19T14:51:49;0.95;;;0.63;;
65971;SDS011;52726;48.852;9.152;2023-02-19T14:54:32;5.22;;;1.10;;
65971;SDS011;52726;48.852;9.152;2023-02-19T14:57:02;4.72;;;0.80;;
65971;SDS011;52726;48.852;9.152;2023-02-19T14:59:35;3.22;;;1.70;;
65971;SDS011;52726;48.852;9.152;2023-02-19T15:02:11;3.28;;;1.10;;
65971;SDS011;52726;48.852;9.152;2023-02-19T15:04:39;1.45;;;0.60;;
65971;SDS011;52726;48.852;9.152;2023-02-19T15:07:05;2.35;;;1.17;;
65971;SDS011;52726;48.852;9.152;2023-02-19T15:09:45;0.70;;;0.70;;
65971;SDS011;52726;48.852;9.152;2023-02-19T15:12:18;0.88;;;0.88;;
65971;SDS011;52726;48.852;9.152;2023-02-19T15:14:47;1.42;;;0.60;;
65971;SDS011;52726;48.852;9.152;2023-02-19T15:17:17;3.17;;;1.25;;
65971;SDS011;52726;48.852;9.152;2023-02-19T15:19:49;2.78;;;1.10;;
65971;SDS011;52726;48.852;9.152;2023-02-19T15:22:20;1.25;;;1.15;;
65971;SDS011;52726;48.852;9.152;2023-02-19T15:24:48;0.80;;;0.80;;
65971;SDS011;52726;48.852;9.152;2023-02-19T15:27:17;1.85;;;0.82;;
65971;SDS011;52726;48.852;9.152;2023-02-19T15:29:46;3.55;;;1.65;;
65971;SDS011;52726;48.852;9.152;2023-02-19T15:32:15;2.47;;;0.82;;
65971;SDS011;52726;48.852;9.152;2023-02-19T15:34:56;1.73;;;1.50;;
65971;SDS011;52726;48.852;9.152;2023-02-19T15:37:23;8.00;;;1.00;;
65971;SDS011;52726;48.852;9.152;2023-02-19T15:39:51;2.78;;;1.30;;
65971;SDS011;52726;48.852;9.152;2023-02-19T15:42:22;3.22;;;1.27;;
65971;SDS011;52726;48.852;9.152;2023-02-19T15:44:54;0.70;;;0.70;;
65971;SDS011;52726;48.852;9.152;2023-02-19T15:47:31;4.95;;;1.20;;
65971;SDS011;52726;48.852;9.152;2023-02-19T15:52:49;0.80;;;0.80;;
65971;SDS011;52726;48.852;9.152;2023-02-19T15:58:26;1.90;;;1.05;;
65971;SDS011;52726;48.852;9.152;2023-02-19T16:01:15;2.47;;;0.93;;
65971;SDS011;52726;48.852;9.152;2023-02-19T16:03:46;2.30;;;0.95;;
65971;SDS011;52726;48.852;9.152;2023-02-19T16:06:15;1.90;;;1.52;;
65971;SDS011;52726;48.852;9.152;2023-02-19T16:08:42;3.78;;;1.30;;
65971;SDS011;52726;48.852;9.152;2023-02-19T16:14:15;3.47;;;1.33;;
65971;SDS011;52726;48.852;9.152;2023-02-19T16:16:42;1.83;;;1.08;;
65971;SDS011;52726;48.852;9.152;2023-02-19T16:19:09;1.33;;;1.02;;
65971;SDS011;52726;48.852;9.152;2023-02-19T16:21:35;5.55;;;1.23;;
65971;SDS011;52726;48.852;9.152;2023-02-19T16:24:04;2.53;;;1.67;;
65971;SDS011;52726;48.852;9.152;2023-02-19T16:26:41;4.22;;;1.60;;
65971;SDS011;52726;48.852;9.152;2023-02-19T16:29:22;4.13;;;1.80;;
65971;SDS011;52726;48.852;9.152;2023-02-19T16:31:59;4.30;;;1.70;;
65971;SDS011;52726;48.852;9.152;2023-02-19T16:34:30;3.15;;;1.20;;
65971;SDS011;52726;48.852;9.152;2023-02-19T16:42:32;3.70;;;1.20;;
65971;SDS011;52726;48.852;9.152;2023-02-19T16:44:58;2.88;;;1.40;;
65971;SDS011;52726;48.852;9.152;2023-02-19T16:47:24;1.83;;;1.25;;
65971;SDS011;52726;48.852;9.152;2023-02-19T16:49:52;3.60;;;1.35;;
65971;SDS011;52726;48.852;9.152;2023-02-19T16:52:19;4.63;;;1.05;;
65971;SDS011;52726;48.852;9.152;2023-02-19T16:54:46;1.35;;;1.02;;
65971;SDS011;52726;48.852;9.152;2023-02-19T16:57:12;3.75;;;1.55;;
65971;SDS011;52726;48.852;9.152;2023-02-19T16:59:37;3.65;;;1.50;;
65971;SDS011;52726;48.852;9.152;2023-02-19T17:02:04;1.35;;;1.15;;
65971;SDS011;52726;48.852;9.152;2023-02-19T17:04:30;1.02;;;0.90;;
65971;SDS011;52726;48.852;9.152;2023-02-19T17:06:56;3.20;;;1.33;;
65971;SDS011;52726;48.852;9.152;2023-02-19T17:09:22;2.33;;;1.42;;
65971;SDS011;52726;48.852;9.152;2023-02-19T17:11:47;1.65;;;1.33;;
65971;SDS011;52726;48.852;9.152;2023-02-19T17:14:13;1.85;;;1.48;;
65971;SDS011;52726;48.852;9.152;2023-02-19T17:16:38;5.72;;;1.73;;
65971;SDS011;52726;48.852;9.152;2023-02-19T17:19:04;8.32;;;1.77;;
65971;SDS011;52726;48.852;9.152;2023-02-19T17:21:38;7.65;;;1.80;;
65971;SDS011;52726;48.852;9.152;2023-02-19T17:24:03;2.97;;;1.55;;
65971;SDS011;52726;48.852;9.152;2023-02-19T17:26:30;2.78;;;1.63;;
65971;SDS011;52726;48.852;9.152;2023-02-19T17:28:59;6.55;;;2.53;;
65971;SDS011;52726;48.852;9.152;2023-02-19T17:31:26;9.27;;;2.20;;
65971;SDS011;52726;48.852;9.152;2023-02-19T17:33:51;1.70;;;1.25;;
65971;SDS011;52726;48.852;9.152;2023-02-19T17:38:46;3.35;;;1.33;;
65971;SDS011;52726;48.852;9.152;2023-02-19T17:41:12;3.05;;;1.38;;
65971;SDS011;52726;48.852;9.152;2023-02-19T17:43:37;3.30;;;1.23;;
65971;SDS011;52726;48.852;9.152;2023-02-19T17:46:03;4.22;;;1.50;;
65971;SDS011;52726;48.852;9.152;2023-02-19T17:48:28;6.03;;;1.58;;